createdAt,value
2023-03-28T00:05:00.549Z,-2.23
2023-03-28T00:10:06.124Z,-2.24
2023-03-28T00:15:10.128Z,-2.09
2023-03-28T00:20:14.707Z,-2.17
2023-03-28T00:25:18.597Z,-2.09
2023-03-28T00:30:22.214Z,-1.99
2023-03-28T00:35:26.101Z,-1.92
2023-03-28T00:40:31.201Z,-1.84
2023-03-28T00:45:34.813Z,-1.77
2023-03-28T00:50:41.212Z,-1.64
2023-03-28T00:55:50.233Z,-1.49
2023-03-28T01:00:56.204Z,-1.29
2023-03-28T01:06:02.155Z,-1.09
2023-03-28T01:11:06.716Z,-0.93
2023-03-28T01:16:12.898Z,-0.78
2023-03-28T01:21:57.162Z,-0.61
2023-03-28T01:27:28.836Z,-0.37
2023-03-28T01:33:06.172Z,-0.12
2023-03-28T01:38:14.480Z,-0.02
2023-03-28T01:43:20.652Z,0.02
2023-03-28T01:48:30.718Z,0.14
2023-03-28T01:53:43.856Z,0.20
2023-03-28T01:59:01.918Z,0.25
2023-03-28T02:04:20.632Z,0.28
2023-03-28T02:09:27.411Z,0.31
2023-03-28T02:14:37.776Z,0.32
2023-03-28T02:19:50.607Z,0.38
2023-03-28T02:24:54.207Z,0.49
2023-03-28T02:29:58.246Z,0.58
2023-03-28T02:35:04.660Z,0.64
2023-03-28T02:40:17.049Z,0.69
2023-03-28T02:45:32.754Z,0.71
2023-03-28T02:50:50.302Z,0.76
2023-03-28T02:56:09.690Z,0.86
2023-03-28T03:01:14.860Z,0.95
2023-03-28T03:06:18.569Z,1.00
2023-03-28T03:11:21.875Z,1.10
2023-03-28T03:16:25.541Z,1.13
2023-03-28T03:21:29.107Z,1.16
2023-03-28T03:26:33.037Z,1.11
2023-03-28T03:31:37.229Z,1.18
2023-03-28T03:36:40.887Z,1.28
2023-03-28T03:41:44.394Z,1.30
2023-03-28T03:46:47.844Z,1.30
2023-03-28T03:51:51.441Z,1.37
2023-03-28T03:56:54.910Z,1.41
2023-03-28T04:01:58.496Z,1.50
2023-03-28T04:07:02.689Z,1.49
2023-03-28T04:12:07.161Z,1.60
2023-03-28T04:17:13.845Z,1.60
2023-03-28T04:22:18.692Z,1.62
2023-03-28T04:27:25.963Z,1.58
2023-03-28T04:32:29.507Z,1.60
2023-03-28T04:37:33.004Z,1.62
2023-03-28T04:42:37.866Z,1.69
2023-03-28T04:47:41.409Z,1.70
2023-03-28T04:52:44.984Z,1.71
2023-03-28T04:57:48.399Z,1.74
2023-03-28T05:03:01.969Z,1.88
2023-03-28T05:08:05.868Z,2.00
2023-03-28T05:13:09.195Z,2.11
2023-03-28T05:18:12.900Z,2.14
2023-03-28T05:23:16.510Z,2.01
2023-03-28T05:28:21.261Z,1.96
2023-03-28T05:33:24.669Z,1.81
2023-03-28T05:38:30.402Z,1.62
2023-03-28T05:43:33.752Z,1.52
2023-03-28T05:48:37.265Z,1.31
2023-03-28T05:53:40.783Z,1.13
2023-03-28T05:58:44.405Z,1.01
2023-03-28T06:03:48.133Z,1.02
2023-03-28T06:08:51.529Z,1.07
2023-03-28T06:13:55.249Z,0.94
2023-03-28T06:19:10.599Z,0.71
2023-03-28T06:24:20.916Z,0.60
2023-03-28T06:29:24.435Z,0.68
2023-03-28T06:34:27.850Z,0.85
2023-03-28T06:39:31.873Z,0.87
2023-03-28T06:44:35.604Z,0.76
2023-03-28T06:49:39.216Z,0.71
2023-03-28T06:54:42.733Z,0.67
2023-03-28T06:59:46.245Z,0.63
2023-03-28T07:04:49.765Z,0.65
2023-03-28T07:09:54.928Z,0.65
2023-03-28T07:14:58.333Z,0.74
2023-03-28T07:20:02.189Z,0.81
2023-03-28T07:25:08.354Z,0.91
2023-03-28T07:30:12.568Z,1.29
2023-03-28T07:35:15.875Z,1.76
2023-03-28T07:40:19.395Z,2.03
2023-03-28T07:45:22.805Z,2.29
2023-03-28T07:50:26.453Z,2.87
2023-03-28T07:55:32.653Z,3.18
2023-03-28T08:00:38.576Z,2.82
2023-03-28T08:05:43.577Z,2.44
2023-03-28T08:10:51.666Z,2.29
2023-03-28T08:15:57.216Z,2.65
2023-03-28T08:21:04.312Z,2.91
2023-03-28T08:26:08.345Z,3.46
2023-03-28T08:31:14.732Z,3.50
2023-03-28T08:36:19.177Z,3.05
2023-03-28T08:41:44.584Z,2.67
2023-03-28T08:46:54.929Z,2.42
2023-03-28T08:52:01.884Z,2.64
2023-03-28T08:57:08.356Z,2.69
2023-03-28T09:02:24.071Z,2.38
2023-03-28T09:07:35.444Z,2.08
2023-03-28T09:13:10.602Z,2.00
2023-03-28T09:18:37.464Z,2.40
2023-03-28T09:24:06.481Z,2.54
2023-03-28T09:29:25.460Z,1.95
2023-03-28T09:34:37.982Z,1.81
2023-03-28T09:39:49.792Z,2.01
2023-03-28T09:45:18.351Z,2.05
2023-03-28T09:50:22.217Z,2.17
2023-03-28T09:55:29.965Z,2.04
2023-03-28T10:00:46.861Z,1.91
2023-03-28T10:05:54.060Z,1.79
2023-03-28T10:11:02.284Z,1.81
2023-03-28T10:16:06.507Z,1.85
2023-03-28T10:21:14.741Z,2.02
2023-03-28T10:26:24.003Z,2.36
2023-03-28T10:31:30.774Z,2.74
2023-03-28T10:36:43.034Z,3.03
2023-03-28T10:41:54.320Z,3.01
2023-03-28T10:47:05.502Z,2.72
2023-03-28T10:52:23.264Z,2.49
2023-03-28T10:57:51.777Z,2.65
2023-03-28T11:02:55.166Z,2.89
2023-03-28T11:08:04.839Z,2.95
2023-03-28T11:13:28.923Z,3.31
2023-03-28T11:18:47.599Z,3.34
2023-03-28T11:24:09.336Z,3.08
2023-03-28T11:29:42.626Z,3.17
2023-03-28T11:35:00.098Z,3.24
2023-03-28T11:40:15.283Z,3.41
2023-03-28T11:45:50.952Z,3.83
2023-03-28T11:51:11.159Z,3.52
2023-03-28T11:56:29.313Z,3.41
2023-03-28T12:01:38.407Z,3.31
2023-03-28T12:07:02.199Z,3.14
2023-03-28T12:12:12.016Z,3.04
2023-03-28T12:17:21.065Z,3.41
2023-03-28T12:22:45.058Z,3.77
2023-03-28T12:27:57.610Z,3.38
2023-03-28T12:33:16.599Z,3.43
2023-03-28T12:38:36.255Z,3.78
2023-03-28T12:43:47.602Z,3.57
2023-03-28T12:49:26.397Z,3.03
2023-03-28T12:54:33.611Z,3.02
2023-03-28T12:59:40.107Z,2.93
2023-03-28T13:04:47.263Z,3.15
2023-03-28T13:10:08.121Z,3.49
2023-03-28T13:15:14.297Z,3.48
2023-03-28T13:20:18.020Z,3.47
2023-03-28T13:25:58.480Z,3.94
2023-03-28T13:31:08.252Z,3.10
2023-03-28T13:36:14.151Z,1.91
2023-03-28T13:41:42.927Z,2.22
2023-03-28T13:46:49.666Z,2.70
2023-03-28T13:52:05.048Z,2.33
2023-03-28T13:57:16.648Z,2.16
2023-03-28T14:02:30.360Z,1.92
2023-03-28T14:07:33.789Z,1.90
2023-03-28T14:12:38.536Z,1.99
2023-03-28T14:17:41.993Z,2.08
2023-03-28T14:22:59.856Z,2.39
2023-03-28T14:28:08.951Z,2.83
2023-03-28T14:33:14.377Z,2.89
2023-03-28T14:38:29.306Z,2.39
2023-03-28T14:43:32.708Z,2.82
2023-03-28T14:48:38.366Z,5.32
2023-03-28T14:53:45.167Z,10.03
2023-03-28T14:58:50.378Z,10.69
2023-03-28T15:04:08.344Z,9.58
2023-03-28T15:09:25.916Z,6.06
2023-03-28T15:14:42.769Z,5.24
2023-03-28T15:19:49.332Z,4.81
2023-03-28T15:24:52.747Z,6.35
2023-03-28T15:29:56.462Z,6.51
2023-03-28T15:35:05.408Z,5.36
2023-03-28T15:40:29.282Z,6.88
2023-03-28T15:45:41.116Z,12.61
2023-03-28T15:50:50.769Z,13.97
2023-03-28T15:55:54.187Z,9.41
2023-03-28T16:01:20.055Z,5.91
2023-03-28T16:06:32.372Z,4.36
2023-03-28T16:11:37.393Z,4.11
2023-03-28T16:16:40.874Z,3.31
2023-03-28T16:21:44.322Z,2.27
2023-03-28T16:26:48.773Z,1.54
2023-03-28T16:31:52.080Z,1.11
2023-03-28T16:36:57.870Z,0.81
2023-03-28T16:42:01.860Z,0.60
2023-03-28T16:47:05.995Z,0.36
2023-03-28T16:52:09.298Z,0.19
2023-03-28T16:57:13.014Z,0.09
2023-03-28T17:02:16.653Z,0.00
2023-03-28T17:07:20.052Z,-0.01
2023-03-28T17:12:24.391Z,0.01
2023-03-28T17:17:27.820Z,-0.01
2023-03-28T17:22:31.323Z,0.01
2023-03-28T17:27:34.632Z,0.04
2023-03-28T17:32:38.088Z,0.07
2023-03-28T17:37:41.971Z,0.11
2023-03-28T17:42:45.177Z,0.15
2023-03-28T17:47:48.833Z,0.24
2023-03-28T17:52:52.102Z,0.26
2023-03-28T17:57:55.574Z,0.27
2023-03-28T18:02:59.007Z,0.31
2023-03-28T18:08:02.441Z,0.32
2023-03-28T18:13:05.667Z,0.36
2023-03-28T18:18:09.791Z,0.40
2023-03-28T18:23:13.097Z,0.42
2023-03-28T18:28:16.476Z,0.41
2023-03-28T18:33:22.343Z,0.35
2023-03-28T18:38:26.101Z,0.31
2023-03-28T18:43:29.513Z,0.16
2023-03-28T18:48:32.748Z,0.05
2023-03-28T18:53:38.012Z,0.02
2023-03-28T18:58:41.402Z,0.02
2023-03-28T19:03:45.155Z,-0.06
2023-03-28T19:08:48.829Z,-0.11
2023-03-28T19:13:52.152Z,-0.15
2023-03-28T19:18:55.551Z,-0.23
2023-03-28T19:23:58.970Z,-0.28
2023-03-28T19:29:02.274Z,-0.34
2023-03-28T19:34:05.947Z,-0.38
2023-03-28T19:39:09.514Z,-0.45
2023-03-28T19:44:12.852Z,-0.50
2023-03-28T19:49:17.563Z,-0.55
2023-03-28T19:54:20.981Z,-0.60
2023-03-28T19:59:24.293Z,-0.64
2023-03-28T20:04:28.452Z,-0.65
2023-03-28T20:09:33.664Z,-0.70
2023-03-28T20:14:38.730Z,-0.73
2023-03-28T20:19:42.348Z,-0.80
2023-03-28T20:24:48.942Z,-0.87
2023-03-28T20:29:52.464Z,-0.94
2023-03-28T20:34:56.065Z,-0.96
2023-03-28T20:40:05.519Z,-0.98
2023-03-28T20:45:14.258Z,-1.02
2023-03-28T20:50:17.587Z,-1.08
2023-03-28T20:55:21.496Z,-1.12
2023-03-28T21:00:25.785Z,-1.13
2023-03-28T21:05:30.364Z,-1.14
2023-03-28T21:10:33.785Z,-1.17
2023-03-28T21:15:37.517Z,-1.20
2023-03-28T21:20:40.714Z,-1.22
2023-03-28T21:25:45.664Z,-1.24
2023-03-28T21:30:59.791Z,-1.26
2023-03-28T21:36:04.495Z,-1.28
2023-03-28T21:41:08.911Z,-1.34
2023-03-28T21:46:12.969Z,-1.39
2023-03-28T21:51:17.527Z,-1.40
2023-03-28T21:56:21.529Z,-1.40
2023-03-28T22:01:24.836Z,-1.41
2023-03-28T22:06:28.530Z,-1.47
2023-03-28T22:11:32.968Z,-1.55
2023-03-28T22:16:39.080Z,-1.60
2023-03-28T22:21:42.469Z,-1.63
2023-03-28T22:26:46.590Z,-1.63
2023-03-28T22:31:49.977Z,-1.62
2023-03-28T22:36:55.163Z,-1.63
2023-03-28T22:41:58.671Z,-1.65
2023-03-28T22:47:04.966Z,-1.69
2023-03-28T22:52:08.570Z,-1.74
2023-03-28T22:57:11.960Z,-1.79
2023-03-28T23:02:15.701Z,-1.80
2023-03-28T23:07:19.325Z,-1.81
2023-03-28T23:12:22.834Z,-1.83
2023-03-28T23:17:29.466Z,-1.88
2023-03-28T23:22:32.945Z,-1.95
2023-03-28T23:27:36.361Z,-2.00
2023-03-28T23:32:39.881Z,-2.03
2023-03-28T23:37:43.385Z,-2.07
2023-03-28T23:42:47.100Z,-2.07
2023-03-28T23:47:51.884Z,-2.08
2023-03-28T23:52:55.565Z,-2.12
2023-03-28T23:58:01.996Z,-2.16
